sensor_id;sensor_type;location;lat;lon;timestamp;pressure;altitude;pressure_sealevel;temperature;humidity
74327;BME280;62745;51.060;13.786;2022-09-02T00:00:52;100818.06;;;11.02;89.71
74327;BME280;62745;51.060;13.786;2022-09-02T00:03:18;100823.28;;;11.19;90.72
74327;BME280;62745;51.060;13.786;2022-09-02T00:05:43;100820.50;;;11.12;90.30
74327;BME280;62745;51.060;13.786;2022-09-02T00:08:09;100824.38;;;11.24;90.69
74327;BME280;62745;51.060;13.786;2022-09-02T00:10:39;100806.41;;;11.18;90.01
74327;BME280;62745;51.060;13.786;2022-09-02T00:13:06;100810.28;;;11.15;89.77
74327;BME280;62745;51.060;13.786;2022-09-02T00:15:32;100810.19;;;11.09;90.19
74327;BME280;62745;51.060;13.786;2022-09-02T00:17:58;100796.97;;;10.93;90.61
74327;BME280;62745;51.060;13.786;2022-09-02T00:20:23;100800.09;;;10.96;90.72
74327;BME280;62745;51.060;13.786;2022-09-02T00:22:49;100799.69;;;10.84;90.53
74327;BME280;62745;51.060;13.786;2022-09-02T00:25:14;100789.38;;;10.81;91.35
74327;BME280;62745;51.060;13.786;2022-09-02T00:27:39;100793.13;;;11.10;90.17
74327;BME280;62745;51.060;13.786;2022-09-02T00:30:05;100794.66;;;11.04;90.42
74327;BME280;62745;51.060;13.786;2022-09-02T00:32:31;100794.28;;;11.07;90.61
74327;BME280;62745;51.060;13.786;2022-09-02T00:34:56;100801.13;;;10.95;90.48
74327;BME280;62745;51.060;13.786;2022-09-02T00:37:23;100798.28;;;10.74;90.21
74327;BME280;62745;51.060;13.786;2022-09-02T00:39:51;100799.41;;;10.57;90.80
74327;BME280;62745;51.060;13.786;2022-09-02T00:42:18;100796.09;;;10.54;91.80
74327;BME280;62745;51.060;13.786;2022-09-02T00:44:43;100804.09;;;10.54;91.42
74327;BME280;62745;51.060;13.786;2022-09-02T00:47:08;100805.25;;;10.60;91.22
74327;BME280;62745;51.060;13.786;2022-09-02T00:49:36;100794.84;;;10.65;91.01
74327;BME280;62745;51.060;13.786;2022-09-02T00:52:11;100807.09;;;10.60;90.97
74327;BME280;62745;51.060;13.786;2022-09-02T00:54:54;100803.00;;;10.87;90.67
74327;BME280;62745;51.060;13.786;2022-09-02T00:57:24;100797.53;;;10.65;90.46
74327;BME280;62745;51.060;13.786;2022-09-02T01:02:23;100789.69;;;10.64;91.97
74327;BME280;62745;51.060;13.786;2022-09-02T01:04:50;100797.69;;;10.64;92.02
74327;BME280;62745;51.060;13.786;2022-09-02T01:07:17;100796.50;;;10.66;92.53
74327;BME280;62745;51.060;13.786;2022-09-02T01:09:42;100797.06;;;10.62;91.88
74327;BME280;62745;51.060;13.786;2022-09-02T01:12:07;100809.63;;;10.53;91.74
74327;BME280;62745;51.060;13.786;2022-09-02T01:14:33;100802.25;;;10.55;92.62
74327;BME280;62745;51.060;13.786;2022-09-02T01:17:00;100788.84;;;10.63;91.45
74327;BME280;62745;51.060;13.786;2022-09-02T01:19:32;100789.59;;;10.72;91.46
74327;BME280;62745;51.060;13.786;2022-09-02T01:21:59;100797.25;;;10.98;90.13
74327;BME280;62745;51.060;13.786;2022-09-02T01:24:28;100797.25;;;10.98;90.31
74327;BME280;62745;51.060;13.786;2022-09-02T01:26:55;100799.66;;;10.70;89.99
74327;BME280;62745;51.060;13.786;2022-09-02T01:29:22;100796.91;;;10.55;91.73
74327;BME280;62745;51.060;13.786;2022-09-02T01:31:48;100791.88;;;10.37;92.17
74327;BME280;62745;51.060;13.786;2022-09-02T01:34:13;100796.13;;;10.23;91.40
74327;BME280;62745;51.060;13.786;2022-09-02T01:36:40;100797.03;;;10.39;92.21
74327;BME280;62745;51.060;13.786;2022-09-02T01:39:07;100795.38;;;10.38;92.12
74327;BME280;62745;51.060;13.786;2022-09-02T01:41:32;100792.47;;;10.47;92.11
74327;BME280;62745;51.060;13.786;2022-09-02T01:43:58;100796.28;;;10.53;91.95
74327;BME280;62745;51.060;13.786;2022-09-02T01:46:23;100793.25;;;10.33;91.23
74327;BME280;62745;51.060;13.786;2022-09-02T01:48:49;100800.03;;;10.44;91.34
74327;BME280;62745;51.060;13.786;2022-09-02T01:51:18;100794.44;;;10.31;90.82
74327;BME280;62745;51.060;13.786;2022-09-02T01:53:44;100789.19;;;10.37;91.95
74327;BME280;62745;51.060;13.786;2022-09-02T01:56:10;100794.88;;;10.42;91.60
74327;BME280;62745;51.060;13.786;2022-09-02T01:58:35;100775.44;;;10.48;91.44
74327;BME280;62745;51.060;13.786;2022-09-02T02:01:01;100778.16;;;10.63;90.87
74327;BME280;62745;51.060;13.786;2022-09-02T02:03:27;100786.06;;;10.57;89.90
74327;BME280;62745;51.060;13.786;2022-09-02T02:05:53;100786.88;;;10.34;90.05
74327;BME280;62745;51.060;13.786;2022-09-02T02:08:18;100788.88;;;10.09;90.58
74327;BME280;62745;51.060;13.786;2022-09-02T02:10:43;100781.63;;;10.26;91.66
74327;BME280;62745;51.060;13.786;2022-09-02T02:13:09;100770.94;;;10.18;91.29
74327;BME280;62745;51.060;13.786;2022-09-02T02:15:39;100779.69;;;10.04;90.67
74327;BME280;62745;51.060;13.786;2022-09-02T02:18:05;100775.28;;;9.88;91.20
74327;BME280;62745;51.060;13.786;2022-09-02T02:20:31;100773.16;;;9.83;92.86
74327;BME280;62745;51.060;13.786;2022-09-02T02:22:56;100780.34;;;10.06;92.23
74327;BME280;62745;51.060;13.786;2022-09-02T02:25:22;100769.03;;;10.04;92.01
74327;BME280;62745;51.060;13.786;2022-09-02T02:27:47;100770.47;;;10.14;92.25
74327;BME280;62745;51.060;13.786;2022-09-02T02:30:14;100774.78;;;10.23;91.57
74327;BME280;62745;51.060;13.786;2022-09-02T02:32:40;100784.75;;;9.99;91.77
74327;BME280;62745;51.060;13.786;2022-09-02T02:35:06;100785.47;;;9.84;91.63
74327;BME280;62745;51.060;13.786;2022-09-02T02:37:32;100778.78;;;9.88;91.69
74327;BME280;62745;51.060;13.786;2022-09-02T02:39:57;100776.91;;;9.97;92.47
74327;BME280;62745;51.060;13.786;2022-09-02T02:42:22;100779.09;;;9.93;92.07
74327;BME280;62745;51.060;13.786;2022-09-02T02:44:48;100783.19;;;10.04;92.35
74327;BME280;62745;51.060;13.786;2022-09-02T02:47:13;100777.38;;;10.01;92.11
74327;BME280;62745;51.060;13.786;2022-09-02T02:49:41;100778.69;;;10.05;92.35
74327;BME280;62745;51.060;13.786;2022-09-02T02:52:07;100783.78;;;10.22;92.60
74327;BME280;62745;51.060;13.786;2022-09-02T02:54:33;100778.22;;;10.01;91.79
74327;BME280;62745;51.060;13.786;2022-09-02T02:56:58;100772.66;;;9.80;92.20
74327;BME280;62745;51.060;13.786;2022-09-02T02:59:24;100779.56;;;9.66;92.79
74327;BME280;62745;51.060;13.786;2022-09-02T03:01:50;100775.94;;;9.51;93.59
74327;BME280;62745;51.060;13.786;2022-09-02T03:04:15;100778.97;;;9.48;93.78
74327;BME280;62745;51.060;13.786;2022-09-02T03:06:40;100779.88;;;9.71;94.72
74327;BME280;62745;51.060;13.786;2022-09-02T03:09:11;100766.44;;;9.87;93.24
74327;BME280;62745;51.060;13.786;2022-09-02T03:11:39;100772.59;;;9.96;93.00
74327;BME280;62745;51.060;13.786;2022-09-02T03:14:04;100781.44;;;10.19;92.73
74327;BME280;62745;51.060;13.786;2022-09-02T03:16:33;100767.84;;;10.06;91.65
74327;BME280;62745;51.060;13.786;2022-09-02T03:18:58;100779.75;;;9.95;91.85
74327;BME280;62745;51.060;13.786;2022-09-02T03:21:23;100781.38;;;10.05;92.92
74327;BME280;62745;51.060;13.786;2022-09-02T03:23:49;100777.75;;;9.98;92.14
74327;BME280;62745;51.060;13.786;2022-09-02T03:26:19;100774.50;;;9.79;92.87
74327;BME280;62745;51.060;13.786;2022-09-02T03:28:45;100767.72;;;9.69;93.86
74327;BME280;62745;51.060;13.786;2022-09-02T03:31:19;100774.09;;;9.59;93.83
74327;BME280;62745;51.060;13.786;2022-09-02T03:33:45;100773.63;;;9.48;94.12
74327;BME280;62745;51.060;13.786;2022-09-02T03:36:19;100775.34;;;9.41;94.45
74327;BME280;62745;51.060;13.786;2022-09-02T03:38:44;100774.81;;;9.37;94.23
74327;BME280;62745;51.060;13.786;2022-09-02T03:41:09;100761.31;;;9.47;94.06
74327;BME280;62745;51.060;13.786;2022-09-02T03:43:34;100771.38;;;9.76;94.06
74327;BME280;62745;51.060;13.786;2022-09-02T03:46:00;100776.53;;;9.77;93.83
74327;BME280;62745;51.060;13.786;2022-09-02T03:48:25;100770.00;;;9.80;93.39
74327;BME280;62745;51.060;13.786;2022-09-02T03:50:50;100763.44;;;9.59;93.59
74327;BME280;62745;51.060;13.786;2022-09-02T03:53:16;100773.28;;;9.51;93.55
74327;BME280;62745;51.060;13.786;2022-09-02T03:55:41;100764.44;;;9.58;93.74
74327;BME280;62745;51.060;13.786;2022-09-02T03:58:06;100773.03;;;9.77;93.59
74327;BME280;62745;51.060;13.786;2022-09-02T04:00:32;100760.50;;;9.77;93.37
74327;BME280;62745;51.060;13.786;2022-09-02T04:02:58;100768.00;;;10.05;92.41
74327;BME280;62745;51.060;13.786;2022-09-02T04:05:24;100763.59;;;9.89;91.95
74327;BME280;62745;51.060;13.786;2022-09-02T04:07:50;100767.69;;;9.77;92.09
74327;BME280;62745;51.060;13.786;2022-09-02T04:10:16;100769.78;;;9.58;92.02
74327;BME280;62745;51.060;13.786;2022-09-02T04:12:42;100762.47;;;9.44;93.17
74327;BME280;62745;51.060;13.786;2022-09-02T04:15:09;100773.00;;;9.38;93.93
74327;BME280;62745;51.060;13.786;2022-09-02T04:17:35;100772.44;;;9.50;94.53
74327;BME280;62745;51.060;13.786;2022-09-02T04:20:01;100771.16;;;9.38;93.95
74327;BME280;62745;51.060;13.786;2022-09-02T04:22:26;100778.44;;;9.60;94.02
74327;BME280;62745;51.060;13.786;2022-09-02T04:24:51;100770.69;;;9.74;93.10
74327;BME280;62745;51.060;13.786;2022-09-02T04:27:17;100767.81;;;9.83;92.00
74327;BME280;62745;51.060;13.786;2022-09-02T04:29:42;100779.84;;;9.79;93.10
74327;BME280;62745;51.060;13.786;2022-09-02T04:32:07;100774.69;;;9.78;92.63
74327;BME280;62745;51.060;13.786;2022-09-02T04:34:32;100770.19;;;9.78;92.47
74327;BME280;62745;51.060;13.786;2022-09-02T04:36:58;100772.19;;;9.76;92.36
74327;BME280;62745;51.060;13.786;2022-09-02T04:39:23;100773.44;;;9.88;92.62
74327;BME280;62745;51.060;13.786;2022-09-02T04:41:48;100771.38;;;9.76;92.20
74327;BME280;62745;51.060;13.786;2022-09-02T04:44:14;100773.94;;;9.92;91.97
74327;BME280;62745;51.060;13.786;2022-09-02T04:46:39;100773.63;;;9.87;92.39
74327;BME280;62745;51.060;13.786;2022-09-02T04:49:04;100770.78;;;9.88;92.03
74327;BME280;62745;51.060;13.786;2022-09-02T04:51:30;100779.59;;;9.97;91.93
74327;BME280;62745;51.060;13.786;2022-09-02T04:53:55;100777.75;;;10.20;92.26
74327;BME280;62745;51.060;13.786;2022-09-02T04:56:26;100778.22;;;10.32;91.99
74327;BME280;62745;51.060;13.786;2022-09-02T04:58:52;100776.28;;;10.18;91.59
74327;BME280;62745;51.060;13.786;2022-09-02T05:01:25;100781.56;;;10.34;91.90
74327;BME280;62745;51.060;13.786;2022-09-02T05:03:51;100786.78;;;10.28;91.35
74327;BME280;62745;51.060;13.786;2022-09-02T05:06:21;100774.91;;;10.30;91.51
74327;BME280;62745;51.060;13.786;2022-09-02T05:08:48;100780.25;;;10.30;92.40
74327;BME280;62745;51.060;13.786;2022-09-02T05:11:19;100779.84;;;10.41;91.17
74327;BME280;62745;51.060;13.786;2022-09-02T05:13:46;100773.44;;;10.28;90.77
74327;BME280;62745;51.060;13.786;2022-09-02T05:16:23;100785.34;;;10.40;91.62
74327;BME280;62745;51.060;13.786;2022-09-02T05:18:50;100780.00;;;10.63;90.94
74327;BME280;62745;51.060;13.786;2022-09-02T05:21:17;100784.09;;;10.50;90.93
74327;BME280;62745;51.060;13.786;2022-09-02T05:23:42;100778.94;;;10.49;90.28
74327;BME280;62745;51.060;13.786;2022-09-02T05:26:10;100772.13;;;10.46;90.61
74327;BME280;62745;51.060;13.786;2022-09-02T05:28:36;100771.94;;;10.48;90.87
74327;BME280;62745;51.060;13.786;2022-09-02T05:31:05;100781.38;;;10.36;91.81
74327;BME280;62745;51.060;13.786;2022-09-02T05:33:32;100774.25;;;10.28;91.87
74327;BME280;62745;51.060;13.786;2022-09-02T05:35:58;100776.38;;;10.33;92.02
74327;BME280;62745;51.060;13.786;2022-09-02T05:38:23;100782.03;;;10.38;91.79
74327;BME280;62745;51.060;13.786;2022-09-02T05:40:49;100775.19;;;10.35;92.12
74327;BME280;62745;51.060;13.786;2022-09-02T05:43:14;100765.81;;;10.39;92.94
74327;BME280;62745;51.060;13.786;2022-09-02T05:45:40;100776.50;;;10.39;93.37
74327;BME280;62745;51.060;13.786;2022-09-02T05:48:05;100775.16;;;10.43;93.12
74327;BME280;62745;51.060;13.786;2022-09-02T05:50:50;100764.03;;;10.54;93.38
74327;BME280;62745;51.060;13.786;2022-09-02T05:53:15;100764.16;;;10.61;93.88
74327;BME280;62745;51.060;13.786;2022-09-02T05:55:41;100762.59;;;10.67;93.36
74327;BME280;62745;51.060;13.786;2022-09-02T05:58:07;100761.03;;;10.72;92.95
74327;BME280;62745;51.060;13.786;2022-09-02T06:00:32;100754.50;;;10.75;93.29
74327;BME280;62745;51.060;13.786;2022-09-02T06:02:57;100756.09;;;10.84;93.46
74327;BME280;62745;51.060;13.786;2022-09-02T06:05:22;100763.69;;;10.95;92.88
74327;BME280;62745;51.060;13.786;2022-09-02T06:07:48;100764.44;;;11.04;92.91
74327;BME280;62745;51.060;13.786;2022-09-02T06:10:13;100766.72;;;11.07;92.73
74327;BME280;62745;51.060;13.786;2022-09-02T06:12:38;100765.72;;;11.23;92.63
74327;BME280;62745;51.060;13.786;2022-09-02T06:15:06;100764.81;;;11.30;92.31
74327;BME280;62745;51.060;13.786;2022-09-02T06:17:31;100757.16;;;11.42;91.96
74327;BME280;62745;51.060;13.786;2022-09-02T06:19:56;100766.38;;;11.69;92.34
74327;BME280;62745;51.060;13.786;2022-09-02T06:22:22;100764.78;;;11.74;90.59
74327;BME280;62745;51.060;13.786;2022-09-02T06:24:47;100763.69;;;11.84;90.85
74327;BME280;62745;51.060;13.786;2022-09-02T06:27:12;100771.06;;;11.96;90.22
74327;BME280;62745;51.060;13.786;2022-09-02T06:29:37;100765.59;;;12.04;89.76
74327;BME280;62745;51.060;13.786;2022-09-02T06:32:03;100770.19;;;12.11;90.00
74327;BME280;62745;51.060;13.786;2022-09-02T06:34:28;100764.91;;;12.17;90.05
74327;BME280;62745;51.060;13.786;2022-09-02T06:36:53;100767.28;;;12.27;89.54
74327;BME280;62745;51.060;13.786;2022-09-02T06:39:20;100771.09;;;12.39;89.01
74327;BME280;62745;51.060;13.786;2022-09-02T06:41:46;100762.56;;;12.50;88.10
74327;BME280;62745;51.060;13.786;2022-09-02T06:44:13;100767.41;;;12.61;87.82
74327;BME280;62745;51.060;13.786;2022-09-02T06:46:43;100764.63;;;12.76;87.38
74327;BME280;62745;51.060;13.786;2022-09-02T06:49:09;100757.28;;;12.85;86.99
74327;BME280;62745;51.060;13.786;2022-09-02T06:51:41;100757.53;;;12.90;86.56
74327;BME280;62745;51.060;13.786;2022-09-02T06:54:08;100759.44;;;12.96;86.97
74327;BME280;62745;51.060;13.786;2022-09-02T06:56:35;100762.84;;;13.11;86.20
74327;BME280;62745;51.060;13.786;2022-09-02T06:59:01;100760.84;;;13.20;85.75
74327;BME280;62745;51.060;13.786;2022-09-02T07:01:28;100763.44;;;13.35;85.53
74327;BME280;62745;51.060;13.786;2022-09-02T07:03:55;100773.41;;;13.47;85.20
74327;BME280;62745;51.060;13.786;2022-09-02T07:06:42;100766.69;;;13.65;84.66
74327;BME280;62745;51.060;13.786;2022-09-02T07:09:19;100763.47;;;13.89;83.71
74327;BME280;62745;51.060;13.786;2022-09-02T07:11:46;100773.25;;;14.03;83.36
74327;BME280;62745;51.060;13.786;2022-09-02T07:14:13;100766.25;;;14.15;83.02
74327;BME280;62745;51.060;13.786;2022-09-02T07:16:45;100765.66;;;14.33;82.58
74327;BME280;62745;51.060;13.786;2022-09-02T07:19:11;100773.19;;;14.44;82.53
74327;BME280;62745;51.060;13.786;2022-09-02T07:21:37;100763.25;;;14.45;82.11
74327;BME280;62745;51.060;13.786;2022-09-02T07:24:05;100750.84;;;14.57;81.78
74327;BME280;62745;51.060;13.786;2022-09-02T07:26:30;100763.03;;;14.73;80.71
74327;BME280;62745;51.060;13.786;2022-09-02T07:28:56;100766.56;;;14.87;80.38
74327;BME280;62745;51.060;13.786;2022-09-02T07:31:21;100756.63;;;14.94;79.33
74327;BME280;62745;51.060;13.786;2022-09-02T07:33:47;100764.91;;;15.12;79.25
74327;BME280;62745;51.060;13.786;2022-09-02T07:36:13;100762.16;;;15.25;76.79
74327;BME280;62745;51.060;13.786;2022-09-02T07:38:40;100743.91;;;15.41;72.24
74327;BME280;62745;51.060;13.786;2022-09-02T07:41:07;100761.41;;;15.76;76.10
74327;BME280;62745;51.060;13.786;2022-09-02T07:43:33;100759.94;;;15.87;75.99
74327;BME280;62745;51.060;13.786;2022-09-02T07:45:59;100769.34;;;16.09;75.87
74327;BME280;62745;51.060;13.786;2022-09-02T07:48:26;100769.66;;;16.26;76.20
74327;BME280;62745;51.060;13.786;2022-09-02T07:50:52;100770.59;;;16.45;75.04
74327;BME280;62745;51.060;13.786;2022-09-02T07:53:18;100774.84;;;16.59;73.61
74327;BME280;62745;51.060;13.786;2022-09-02T07:55:44;100766.31;;;16.69;70.64
74327;BME280;62745;51.060;13.786;2022-09-02T07:58:10;100770.34;;;16.84;65.86
74327;BME280;62745;51.060;13.786;2022-09-02T08:00:37;100767.84;;;17.08;66.67
74327;BME280;62745;51.060;13.786;2022-09-02T08:03:03;100756.91;;;17.21;64.61
74327;BME280;62745;51.060;13.786;2022-09-02T08:05:31;100757.97;;;17.38;64.53
74327;BME280;62745;51.060;13.786;2022-09-02T08:07:57;100751.47;;;17.64;64.29
74327;BME280;62745;51.060;13.786;2022-09-02T08:10:22;100755.97;;;17.70;61.17
74327;BME280;62745;51.060;13.786;2022-09-02T08:12:50;100758.97;;;17.81;61.67
74327;BME280;62745;51.060;13.786;2022-09-02T08:15:16;100755.50;;;17.92;59.87
74327;BME280;62745;51.060;13.786;2022-09-02T08:17:43;100752.63;;;18.05;58.58
74327;BME280;62745;51.060;13.786;2022-09-02T08:20:10;100755.03;;;18.25;57.99
74327;BME280;62745;51.060;13.786;2022-09-02T08:22:36;100746.03;;;18.43;55.71
74327;BME280;62745;51.060;13.786;2022-09-02T08:25:02;100747.25;;;18.58;55.57
74327;BME280;62745;51.060;13.786;2022-09-02T08:27:28;100739.66;;;18.79;55.07
74327;BME280;62745;51.060;13.786;2022-09-02T08:29:53;100742.03;;;18.87;51.96
74327;BME280;62745;51.060;13.786;2022-09-02T08:32:19;100752.59;;;19.12;51.59
74327;BME280;62745;51.060;13.786;2022-09-02T08:34:44;100752.25;;;19.32;52.20
74327;BME280;62745;51.060;13.786;2022-09-02T08:37:10;100746.69;;;19.50;51.36
74327;BME280;62745;51.060;13.786;2022-09-02T08:39:35;100749.16;;;19.51;51.47
74327;BME280;62745;51.060;13.786;2022-09-02T08:42:22;100740.69;;;19.60;48.58
74327;BME280;62745;51.060;13.786;2022-09-02T08:44:50;100741.47;;;19.72;49.04
74327;BME280;62745;51.060;13.786;2022-09-02T08:47:22;100739.31;;;19.86;48.05
74327;BME280;62745;51.060;13.786;2022-09-02T08:49:52;100736.53;;;19.97;47.48
74327;BME280;62745;51.060;13.786;2022-09-02T08:52:28;100733.41;;;20.17;46.80
74327;BME280;62745;51.060;13.786;2022-09-02T08:54:55;100728.44;;;20.14;47.28
74327;BME280;62745;51.060;13.786;2022-09-02T08:57:24;100734.84;;;20.36;46.10
74327;BME280;62745;51.060;13.786;2022-09-02T08:59:50;100731.63;;;20.39;44.84
74327;BME280;62745;51.060;13.786;2022-09-02T09:02:28;100728.31;;;20.66;46.02
74327;BME280;62745;51.060;13.786;2022-09-02T09:05:14;100728.63;;;20.69;45.63
74327;BME280;62745;51.060;13.786;2022-09-02T09:10:24;100719.50;;;20.76;43.15
74327;BME280;62745;51.060;13.786;2022-09-02T09:15:36;100722.59;;;20.34;44.28
74327;BME280;62745;51.060;13.786;2022-09-02T09:18:07;100711.63;;;20.29;43.13
74327;BME280;62745;51.060;13.786;2022-09-02T09:20:38;100712.81;;;20.33;43.59
74327;BME280;62745;51.060;13.786;2022-09-02T09:23:26;100707.25;;;20.56;44.56
74327;BME280;62745;51.060;13.786;2022-09-02T09:25:56;100699.50;;;20.65;45.04
74327;BME280;62745;51.060;13.786;2022-09-02T09:28:27;100703.13;;;20.70;45.18
74327;BME280;62745;51.060;13.786;2022-09-02T09:30:52;100697.88;;;21.19;42.26
74327;BME280;62745;51.060;13.786;2022-09-02T09:33:20;100698.91;;;21.57;40.57
74327;BME280;62745;51.060;13.786;2022-09-02T09:35:51;100697.75;;;21.75;39.88
74327;BME280;62745;51.060;13.786;2022-09-02T09:38:31;100693.22;;;22.07;41.82
74327;BME280;62745;51.060;13.786;2022-09-02T09:41:20;100698.69;;;22.39;39.59
74327;BME280;62745;51.060;13.786;2022-09-02T09:43:48;100691.47;;;22.23;39.21
74327;BME280;62745;51.060;13.786;2022-09-02T09:46:39;100682.09;;;22.78;37.63
74327;BME280;62745;51.060;13.786;2022-09-02T09:49:04;100686.69;;;23.09;36.57
74327;BME280;62745;51.060;13.786;2022-09-02T09:51:30;100693.19;;;23.03;34.78
74327;BME280;62745;51.060;13.786;2022-09-02T09:54:14;100689.50;;;23.30;34.32
74327;BME280;62745;51.060;13.786;2022-09-02T09:56:40;100681.38;;;23.40;35.67
74327;BME280;62745;51.060;13.786;2022-09-02T09:59:06;100685.47;;;23.37;35.55
74327;BME280;62745;51.060;13.786;2022-09-02T10:01:33;100688.31;;;23.05;36.33
74327;BME280;62745;51.060;13.786;2022-09-02T10:04:05;100689.66;;;23.03;36.66
74327;BME280;62745;51.060;13.786;2022-09-02T10:09:04;100679.09;;;22.37;39.66
74327;BME280;62745;51.060;13.786;2022-09-02T10:11:35;100676.13;;;21.63;42.86
74327;BME280;62745;51.060;13.786;2022-09-02T10:14:09;100678.94;;;21.24;42.41
74327;BME280;62745;51.060;13.786;2022-09-02T10:17:10;100672.41;;;20.87;44.02
74327;BME280;62745;51.060;13.786;2022-09-02T10:20:06;100671.09;;;21.11;43.13
74327;BME280;62745;51.060;13.786;2022-09-02T10:25:16;100680.66;;;21.79;42.07
74327;BME280;62745;51.060;13.786;2022-09-02T10:30:21;100678.34;;;21.93;41.50
74327;BME280;62745;51.060;13.786;2022-09-02T10:33:15;100673.22;;;21.97;39.12
74327;BME280;62745;51.060;13.786;2022-09-02T10:35:45;100677.00;;;22.17;39.75
74327;BME280;62745;51.060;13.786;2022-09-02T10:40:52;100672.00;;;22.36;36.99
74327;BME280;62745;51.060;13.786;2022-09-02T10:43:28;100673.63;;;22.37;37.76
74327;BME280;62745;51.060;13.786;2022-09-02T10:45:59;100668.66;;;22.29;38.04
74327;BME280;62745;51.060;13.786;2022-09-02T10:48:53;100671.03;;;22.52;36.88
74327;BME280;62745;51.060;13.786;2022-09-02T10:51:30;100662.88;;;22.52;36.88
74327;BME280;62745;51.060;13.786;2022-09-02T10:54:38;100655.78;;;22.51;38.11
74327;BME280;62745;51.060;13.786;2022-09-02T10:57:14;100656.47;;;22.37;41.58
74327;BME280;62745;51.060;13.786;2022-09-02T11:00:00;100658.84;;;22.28;42.74
74327;BME280;62745;51.060;13.786;2022-09-02T11:02:31;100656.38;;;22.27;42.03
74327;BME280;62745;51.060;13.786;2022-09-02T11:05:04;100652.19;;;21.87;43.28
74327;BME280;62745;51.060;13.786;2022-09-02T11:07:43;100657.41;;;21.93;41.30
74327;BME280;62745;51.060;13.786;2022-09-02T11:10:18;100651.00;;;21.78;41.84
74327;BME280;62745;51.060;13.786;2022-09-02T11:12:58;100647.09;;;21.96;41.33
74327;BME280;62745;51.060;13.786;2022-09-02T11:15:47;100645.94;;;22.50;39.14
74327;BME280;62745;51.060;13.786;2022-09-02T11:18:24;100644.09;;;23.61;37.06
74327;BME280;62745;51.060;13.786;2022-09-02T11:20:57;100640.94;;;24.05;36.03
74327;BME280;62745;51.060;13.786;2022-09-02T11:23:32;100649.38;;;23.93;36.10
74327;BME280;62745;51.060;13.786;2022-09-02T11:26:23;100647.63;;;22.94;37.06
74327;BME280;62745;51.060;13.786;2022-09-02T11:31:29;100640.25;;;22.89;38.48
74327;BME280;62745;51.060;13.786;2022-09-02T11:34:04;100635.00;;;22.40;40.80
74327;BME280;62745;51.060;13.786;2022-09-02T11:36:40;100642.06;;;21.82;40.50
74327;BME280;62745;51.060;13.786;2022-09-02T11:42:25;100644.69;;;21.99;40.94
74327;BME280;62745;51.060;13.786;2022-09-02T11:45:32;100637.72;;;22.08;40.24
74327;BME280;62745;51.060;13.786;2022-09-02T11:55:57;100629.06;;;22.48;38.72
74327;BME280;62745;51.060;13.786;2022-09-02T11:58:39;100633.19;;;22.51;38.06
74327;BME280;62745;51.060;13.786;2022-09-02T12:01:20;100622.78;;;22.48;38.04
74327;BME280;62745;51.060;13.786;2022-09-02T12:03:54;100620.69;;;22.55;37.09
74327;BME280;62745;51.060;13.786;2022-09-02T12:06:20;100627.25;;;22.64;36.60
74327;BME280;62745;51.060;13.786;2022-09-02T12:11:36;100622.22;;;22.41;38.29
74327;BME280;62745;51.060;13.786;2022-09-02T12:14:05;100615.53;;;22.64;38.66
74327;BME280;62745;51.060;13.786;2022-09-02T12:16:36;100605.09;;;22.50;38.80
74327;BME280;62745;51.060;13.786;2022-09-02T12:21:33;100594.50;;;22.91;36.06
74327;BME280;62745;51.060;13.786;2022-09-02T12:31:48;100585.72;;;25.83;29.52
74327;BME280;62745;51.060;13.786;2022-09-02T12:36:52;100572.41;;;23.86;33.85
74327;BME280;62745;51.060;13.786;2022-09-02T12:44:51;100574.28;;;24.16;33.43
74327;BME280;62745;51.060;13.786;2022-09-02T12:55:14;100572.09;;;23.67;32.91
74327;BME280;62745;51.060;13.786;2022-09-02T12:57:44;100576.31;;;23.07;35.12
74327;BME280;62745;51.060;13.786;2022-09-02T13:00:23;100568.25;;;22.80;36.07
74327;BME280;62745;51.060;13.786;2022-09-02T13:03:06;100569.13;;;22.43;37.24
74327;BME280;62745;51.060;13.786;2022-09-02T13:05:49;100564.75;;;22.37;36.82
74327;BME280;62745;51.060;13.786;2022-09-02T13:11:42;100561.00;;;21.25;38.23
74327;BME280;62745;51.060;13.786;2022-09-02T13:14:46;100559.22;;;21.14;39.99
74327;BME280;62745;51.060;13.786;2022-09-02T13:22:48;100548.72;;;21.23;40.66
74327;BME280;62745;51.060;13.786;2022-09-02T13:33:15;100546.53;;;21.20;39.59
74327;BME280;62745;51.060;13.786;2022-09-02T13:35:41;100547.53;;;21.14;39.67
74327;BME280;62745;51.060;13.786;2022-09-02T13:38:11;100544.44;;;21.05;40.45
74327;BME280;62745;51.060;13.786;2022-09-02T13:40:37;100541.91;;;20.98;40.56
74327;BME280;62745;51.060;13.786;2022-09-02T13:45:41;100534.66;;;20.82;40.96
74327;BME280;62745;51.060;13.786;2022-09-02T13:48:09;100538.69;;;21.23;40.63
74327;BME280;62745;51.060;13.786;2022-09-02T13:50:36;100534.84;;;21.46;41.13
74327;BME280;62745;51.060;13.786;2022-09-02T13:53:06;100531.75;;;21.65;40.26
74327;BME280;62745;51.060;13.786;2022-09-02T13:55:32;100525.63;;;22.11;39.00
74327;BME280;62745;51.060;13.786;2022-09-02T13:58:31;100525.94;;;23.30;34.76
74327;BME280;62745;51.060;13.786;2022-09-02T14:01:19;100517.16;;;25.64;31.75
74327;BME280;62745;51.060;13.786;2022-09-02T14:03:49;100504.13;;;26.66;29.43
74327;BME280;62745;51.060;13.786;2022-09-02T14:06:17;100500.84;;;28.29;25.75
74327;BME280;62745;51.060;13.786;2022-09-02T14:08:43;100498.72;;;28.39;26.18
74327;BME280;62745;51.060;13.786;2022-09-02T14:11:14;100508.59;;;27.94;26.10